South Fork, Wisconsin
Current Conditions -  °F | °C
As of 1:55 PM on Saturday 20 Dec 2014 (Local Time) from KRCX Reporting Station
Overcast Overcast  
Wind Chill: 25°   Ceiling: 1100
Heat Index: 31°   Visibility: 7mi
Dew Point: 26°   Wind: 6mph
Humidity: 84%   Direction: 150°SSE
Pressure: 30.16"   Gusts: NA
Location:  45.5192°N, 90.7243°W
Report Text: KRCX 201955Z AUTO 15005KT 7SM OVC011 M01/M03 A3016 RMK AO2 T10081032
Loading
Personal Weather Stations






























Interactive Weather Map New forecast layout! Learn more

10-Day Weather Forecast

Advertisements
Track Severe Weather on mobile